This is the latest recevied weather packets stored in our database for station/object JE3XST-13. If no packets are shown the sender has not sent any weather packets the latest 10 day(s).
| Time | Temp. | Humidity | Pressure | Rain* | Wind** | Luminosity | Snow |
|---|---|---|---|---|---|---|---|
| 1788051852 | 31.11° C | 73% | 1008.9 hPa | 0 mm | - | - | - |
| 1788050051 | 30.56° C | 79% | 1009 hPa | 0 mm | - | - | - |
| 1788048395 | 29.44° C | 82% | 1009.1 hPa | 0 mm | - | - | - |
| 1788046592 | 28.33° C | 88% | 1009 hPa | 0 mm | - | - | - |
| 1788044790 | 27.22° C | 92% | 1008.9 hPa | 0 mm | - | - | - |
| 1788042990 | 26.11° C | 96% | 1008.8 hPa | 0 mm | - | - | - |
| 1788041045 | 25.56° C | 97% | 1008.6 hPa | 0 mm | - | - | - |
| 1788040256 | 25° C | 97% | 1008.6 hPa | 0 mm | - | - | - |
| 1788038456 | 25° C | 97% | 1008.5 hPa | 0 mm | - | - | - |
| 1788036654 | 25° C | 97% | 1008.3 hPa | 0 mm | - | - | - |
| 1788034853 | 24.44° C | 97% | 1008.1 hPa | 0 mm | - | - | - |
| 1788033051 | 24.44° C | 97% | 1008 hPa | 0 mm | - | - | - |
| 1788031084 | 24.44° C | 97% | 1007.8 hPa | 0 mm | - | - | - |
| 1788029285 | 25° C | 97% | 1007.9 hPa | 0 mm | - | - | - |
| 1788027483 | 25° C | 97% | 1007.7 hPa | 0 mm | - | - | - |
| 1788025684 | 25° C | 96% | 1007.4 hPa | 0 mm | - | - | - |
| 1788023884 | 25° C | 96% | 1007.3 hPa | 0 mm | - | - | - |
| 1788022084 | 25.56° C | 96% | 1007.4 hPa | 0 mm | - | - | - |
| 1788020283 | 25.56° C | 96% | 1007.6 hPa | 0.25 mm | - | - | - |
| 1788018481 | 25.56° C | 96% | 1007.6 hPa | 0 mm | - | - | - |
| 1788016682 | 25.56° C | 96% | 1007.8 hPa | 0 mm | - | - | - |
| 1788014881 | 25.56° C | 96% | 1007.9 hPa | 0 mm | - | - | - |
| 1788013080 | 25.56° C | 96% | 1008 hPa | 0 mm | - | - | - |
| 1788011280 | 25.56° C | 95% | 1008.1 hPa | 0 mm | - | - | - |
| 1788009479 | 26.11° C | 95% | 1008.1 hPa | 0 mm | - | - | - |
* Rain latest hour (hover to see other rain measurements)
** Current wind speed in m/s (hover to see current wind gust speed)